createdAt,value
2022-08-20T00:00:38.265Z,74.38
2022-08-20T00:03:08.689Z,73.97
2022-08-20T00:05:38.984Z,73.38
2022-08-20T00:08:06.977Z,73.52
2022-08-20T00:10:36.211Z,73.10
2022-08-20T00:13:05.601Z,72.66
2022-08-20T00:15:34.552Z,73.30
2022-08-20T00:18:01.910Z,73.13
2022-08-20T00:20:31.051Z,72.76
2022-08-20T00:22:58.575Z,72.70
2022-08-20T00:25:26.267Z,72.09
2022-08-20T00:27:52.703Z,71.75
2022-08-20T00:30:19.368Z,72.07
2022-08-20T00:32:49.443Z,71.88
2022-08-20T00:35:19.301Z,71.36
2022-08-20T00:37:45.761Z,71.18
2022-08-20T00:40:22.213Z,70.70
2022-08-20T00:42:53.279Z,70.69
2022-08-20T00:45:21.106Z,71.19
2022-08-20T00:47:51.140Z,71.65
2022-08-20T00:50:24.497Z,71.21
2022-08-20T00:52:52.771Z,71.07
2022-08-20T00:55:22.594Z,71.48
2022-08-20T00:58:00.858Z,71.54
2022-08-20T01:00:37.835Z,72.48
2022-08-20T01:03:09.540Z,73.26
2022-08-20T01:05:41.136Z,74.14
2022-08-20T01:08:07.998Z,74.58
2022-08-20T01:10:37.779Z,75.02
2022-08-20T01:13:11.242Z,75.48
2022-08-20T01:15:43.434Z,74.74
2022-08-20T01:18:13.900Z,75.15
2022-08-20T01:20:46.425Z,75.59
2022-08-20T01:23:27.991Z,75.15
2022-08-20T01:26:11.883Z,75.46
2022-08-20T01:28:43.996Z,76.16
2022-08-20T01:31:20.739Z,76.31
2022-08-20T01:33:48.535Z,76.87
2022-08-20T01:36:17.606Z,76.63
2022-08-20T01:38:54.246Z,75.88
2022-08-20T01:41:35.153Z,75.64
2022-08-20T01:44:02.221Z,75.70
2022-08-20T01:46:35.681Z,75.17
2022-08-20T01:49:13.546Z,74.35
2022-08-20T01:51:49.151Z,74.55
2022-08-20T01:54:15.790Z,74.35
2022-08-20T01:57:00.658Z,73.93
2022-08-20T01:59:27.412Z,73.50
2022-08-20T02:01:54.420Z,73.88
2022-08-20T02:04:21.589Z,73.77
2022-08-20T02:06:59.671Z,73.35
2022-08-20T02:09:33.164Z,73.05
2022-08-20T02:12:00.331Z,73.77
2022-08-20T02:14:28.012Z,73.62
2022-08-20T02:16:55.612Z,74.10
2022-08-20T02:19:39.348Z,73.74
2022-08-20T02:22:17.275Z,73.66
2022-08-20T02:24:44.223Z,73.57
2022-08-20T02:27:10.760Z,74.36
2022-08-20T02:29:37.423Z,74.11
2022-08-20T02:32:32.037Z,73.90
2022-08-20T02:34:52.634Z,74.58
2022-08-20T02:37:19.131Z,74.11
2022-08-20T02:39:47.081Z,74.70
2022-08-20T02:42:14.281Z,73.83
2022-08-20T02:44:40.700Z,73.34
2022-08-20T02:47:08.096Z,72.72
2022-08-20T02:49:35.437Z,72.04
2022-08-20T02:52:02.121Z,71.95
2022-08-20T02:54:29.434Z,71.38
2022-08-20T02:56:56.328Z,71.22
2022-08-20T02:59:22.712Z,70.82
2022-08-20T03:01:59.322Z,70.70
2022-08-20T03:04:31.119Z,70.54
2022-08-20T03:06:59.053Z,70.95
2022-08-20T03:09:25.814Z,70.71
2022-08-20T03:11:52.818Z,71.10
2022-08-20T03:14:19.648Z,70.52
2022-08-20T03:16:45.989Z,70.21
2022-08-20T03:19:13.741Z,70.17
2022-08-20T03:21:40.273Z,70.21
2022-08-20T03:24:06.931Z,70.10
2022-08-20T03:26:33.454Z,70.24
2022-08-20T03:28:59.799Z,70.17
2022-08-20T03:31:26.149Z,70.33
2022-08-20T03:33:53.750Z,70.38
2022-08-20T03:36:28.166Z,70.06
2022-08-20T03:39:01.648Z,69.86
2022-08-20T03:41:28.871Z,70.02
2022-08-20T03:43:55.717Z,70.42
2022-08-20T03:46:23.790Z,69.91
2022-08-20T03:48:56.436Z,70.06
2022-08-20T03:51:30.351Z,69.53
2022-08-20T03:53:57.180Z,69.87
2022-08-20T03:56:23.591Z,70.23
2022-08-20T03:58:50.220Z,70.08
2022-08-20T04:01:37.124Z,69.80
2022-08-20T04:04:03.227Z,69.86
2022-08-20T04:06:30.283Z,70.09
2022-08-20T04:08:57.580Z,69.93
2022-08-20T04:11:24.344Z,70.15
2022-08-20T04:13:51.032Z,70.30
2022-08-20T04:16:18.173Z,70.34
2022-08-20T04:18:56.101Z,70.22
2022-08-20T04:21:33.464Z,69.98
2022-08-20T04:24:01.360Z,70.06
2022-08-20T04:26:28.272Z,70.26
2022-08-20T04:28:55.308Z,70.76
2022-08-20T04:31:25.244Z,70.49
2022-08-20T04:33:52.326Z,70.75
2022-08-20T04:36:21.724Z,71.06
2022-08-20T04:38:50.428Z,70.67
2022-08-20T04:41:22.561Z,70.69
2022-08-20T04:43:51.652Z,70.57
2022-08-20T04:46:18.151Z,70.39
2022-08-20T04:48:48.865Z,69.93
2022-08-20T04:51:18.073Z,70.78
2022-08-20T04:53:45.206Z,70.82
2022-08-20T04:56:23.122Z,70.88
2022-08-20T04:58:51.226Z,70.52
2022-08-20T05:01:17.619Z,70.63
2022-08-20T05:03:44.321Z,71.04
2022-08-20T05:06:12.190Z,71.49
2022-08-20T05:08:39.940Z,71.58
2022-08-20T05:11:34.081Z,72.30
2022-08-20T05:13:55.688Z,73.45
2022-08-20T05:16:23.537Z,74.25
2022-08-20T05:18:52.332Z,74.89
2022-08-20T05:21:20.404Z,76.21
2022-08-20T05:23:46.792Z,75.43
2022-08-20T05:26:15.719Z,76.04
2022-08-20T05:28:57.943Z,76.30
2022-08-20T05:31:32.182Z,76.91
2022-08-20T05:34:12.038Z,77.39
2022-08-20T05:36:41.872Z,76.24
2022-08-20T05:39:09.463Z,76.06
2022-08-20T05:41:36.387Z,74.72
2022-08-20T05:44:03.227Z,74.10
2022-08-20T05:46:31.258Z,73.97
2022-08-20T05:48:59.531Z,74.63
2022-08-20T05:51:27.102Z,73.97
2022-08-20T05:53:53.440Z,74.69
2022-08-20T05:56:19.796Z,75.18
2022-08-20T05:58:52.995Z,77.34
2022-08-20T06:01:19.718Z,77.67
2022-08-20T06:04:04.711Z,78.61
2022-08-20T06:06:45.070Z,78.44
2022-08-20T06:09:15.314Z,79.43
2022-08-20T06:11:41.770Z,79.75
2022-08-20T06:14:08.125Z,80.34
2022-08-20T06:16:34.625Z,79.90
2022-08-20T06:19:04.487Z,80.16
2022-08-20T06:21:30.983Z,80.05
2022-08-20T06:23:59.335Z,80.27
2022-08-20T06:26:30.276Z,79.32
2022-08-20T06:28:58.224Z,78.19
2022-08-20T06:31:24.917Z,77.77
2022-08-20T06:33:51.338Z,77.51
2022-08-20T06:36:18.684Z,76.71
2022-08-20T06:38:46.411Z,76.34
2022-08-20T06:41:13.877Z,75.54
2022-08-20T06:43:40.234Z,74.60
2022-08-20T06:46:06.845Z,75.71
2022-08-20T06:48:33.205Z,77.13
2022-08-20T06:50:59.588Z,76.69
2022-08-20T06:53:25.955Z,75.96
2022-08-20T06:55:55.240Z,76.04
2022-08-20T06:58:35.741Z,76.31
2022-08-20T07:01:10.364Z,76.98
2022-08-20T07:03:42.206Z,76.93
2022-08-20T07:06:21.794Z,76.67
2022-08-20T07:08:48.300Z,77.01
2022-08-20T07:11:14.637Z,76.55
2022-08-20T07:13:41.880Z,76.27
2022-08-20T07:16:08.262Z,75.60
2022-08-20T07:18:34.658Z,75.81
2022-08-20T07:21:01.015Z,76.51
2022-08-20T07:23:28.733Z,76.15
2022-08-20T07:25:58.280Z,75.80
2022-08-20T07:28:28.767Z,76.18
2022-08-20T07:31:15.798Z,74.77
2022-08-20T07:33:44.292Z,74.00
2022-08-20T07:36:12.512Z,73.89
2022-08-20T07:38:39.027Z,74.45
2022-08-20T07:41:10.112Z,74.59
2022-08-20T07:43:36.526Z,73.85
2022-08-20T07:46:08.704Z,72.42
2022-08-20T07:48:39.041Z,72.34
2022-08-20T07:51:06.662Z,72.73
2022-08-20T07:53:36.317Z,72.73
2022-08-20T07:56:06.677Z,73.06
2022-08-20T07:58:35.706Z,73.86
2022-08-20T08:01:03.381Z,74.38
2022-08-20T08:03:39.794Z,74.71
2022-08-20T08:06:29.894Z,73.99
2022-08-20T08:09:04.145Z,74.29
2022-08-20T08:11:33.079Z,74.11
2022-08-20T08:14:00.184Z,74.76
2022-08-20T08:16:28.659Z,74.98
2022-08-20T08:18:56.723Z,75.24
2022-08-20T08:21:23.688Z,75.85
2022-08-20T08:23:50.180Z,75.91
2022-08-20T08:26:18.960Z,76.20
2022-08-20T08:28:46.437Z,76.15
2022-08-20T08:31:13.484Z,76.68
2022-08-20T08:33:41.632Z,77.30
2022-08-20T08:36:11.503Z,78.30
2022-08-20T08:38:39.972Z,77.69
2022-08-20T08:41:15.436Z,77.81
2022-08-20T08:43:43.802Z,78.75
2022-08-20T08:46:11.938Z,79.39
2022-08-20T08:48:43.155Z,80.55
2022-08-20T08:51:14.554Z,81.08
2022-08-20T08:53:53.546Z,80.47
2022-08-20T08:56:23.720Z,79.92
2022-08-20T08:58:50.358Z,81.05
2022-08-20T09:01:53.016Z,81.38
2022-08-20T09:04:06.836Z,81.87
2022-08-20T09:06:33.503Z,82.47
2022-08-20T09:09:04.557Z,81.73
2022-08-20T09:11:46.036Z,81.44
2022-08-20T09:14:12.790Z,83.11
2022-08-20T09:16:52.997Z,85.14
2022-08-20T09:19:20.484Z,84.59
2022-08-20T09:21:46.991Z,84.00
2022-08-20T09:24:13.428Z,84.77
2022-08-20T09:26:41.170Z,84.84
2022-08-20T09:29:07.746Z,84.97
2022-08-20T09:31:34.127Z,85.64
2022-08-20T09:34:00.819Z,85.11
2022-08-20T09:36:31.395Z,84.32
2022-08-20T09:39:00.340Z,83.42
2022-08-20T09:41:27.074Z,84.57
2022-08-20T09:43:54.407Z,83.87
2022-08-20T09:46:20.745Z,83.80
2022-08-20T09:48:53.795Z,83.97
2022-08-20T09:51:20.184Z,82.74
2022-08-20T09:53:47.100Z,82.25
2022-08-20T09:56:13.625Z,82.46
2022-08-20T09:58:50.752Z,81.99
2022-08-20T10:01:19.391Z,81.54
2022-08-20T10:03:49.596Z,81.05
2022-08-20T10:06:19.498Z,81.58
2022-08-20T10:08:46.455Z,81.75
2022-08-20T10:11:12.991Z,83.44
2022-08-20T10:13:39.433Z,84.29
2022-08-20T10:16:06.314Z,83.68
2022-08-20T10:18:32.709Z,82.61
2022-08-20T10:20:59.063Z,82.79
2022-08-20T10:23:25.411Z,82.87
2022-08-20T10:25:51.741Z,82.74
2022-08-20T10:28:18.094Z,82.49
2022-08-20T10:30:45.125Z,81.98
2022-08-20T10:33:11.527Z,81.55
2022-08-20T10:35:37.929Z,81.12
2022-08-20T10:38:04.275Z,80.98
2022-08-20T10:40:32.925Z,80.46
2022-08-20T10:42:59.375Z,80.30
2022-08-20T10:45:25.836Z,80.73
2022-08-20T10:47:52.329Z,79.37
2022-08-20T10:50:19.904Z,78.78
2022-08-20T10:52:47.004Z,79.50
2022-08-20T10:55:13.567Z,80.21
2022-08-20T10:57:41.733Z,80.21
2022-08-20T11:00:15.077Z,78.89
2022-08-20T11:02:41.693Z,78.84
2022-08-20T11:05:08.510Z,78.74
2022-08-20T11:07:55.339Z,78.35
2022-08-20T11:10:26.195Z,77.89
2022-08-20T11:12:52.629Z,76.18
2022-08-20T11:15:19.111Z,77.37
2022-08-20T11:17:47.074Z,76.41
2022-08-20T11:20:15.955Z,76.00
2022-08-20T11:22:42.381Z,75.29
2022-08-20T11:25:09.333Z,74.52
2022-08-20T11:27:42.122Z,74.53
2022-08-20T11:30:12.210Z,73.79
2022-08-20T11:32:38.809Z,74.15
2022-08-20T11:35:24.413Z,73.71
2022-08-20T11:37:52.485Z,73.78
2022-08-20T11:40:19.196Z,73.65
2022-08-20T11:43:11.136Z,73.48
2022-08-20T11:45:37.403Z,72.69
2022-08-20T11:48:04.535Z,72.68
2022-08-20T11:50:30.948Z,72.81
2022-08-20T11:52:57.288Z,72.59
2022-08-20T11:55:29.541Z,71.61
2022-08-20T11:57:57.249Z,71.34
2022-08-20T12:00:33.167Z,71.77
2022-08-20T12:03:00.991Z,71.39
2022-08-20T12:05:29.300Z,68.99
2022-08-20T12:07:55.755Z,68.32
2022-08-20T12:10:24.514Z,67.40
2022-08-20T12:12:50.954Z,67.88
2022-08-20T12:15:17.474Z,67.76
2022-08-20T12:17:43.935Z,66.65
2022-08-20T12:20:14.146Z,67.14
2022-08-20T12:22:40.559Z,66.44
2022-08-20T12:25:08.273Z,65.88
2022-08-20T12:27:36.647Z,65.94
2022-08-20T12:30:08.635Z,65.66
2022-08-20T12:32:35.529Z,66.78
2022-08-20T12:35:04.294Z,65.81
2022-08-20T12:37:32.002Z,63.84
2022-08-20T12:40:00.468Z,63.75
2022-08-20T12:42:29.131Z,63.90
2022-08-20T12:44:55.476Z,63.09
2022-08-20T12:47:25.042Z,62.55
2022-08-20T12:50:07.526Z,61.39
2022-08-20T12:52:34.935Z,60.89
2022-08-20T12:55:03.019Z,60.69
2022-08-20T12:57:38.366Z,61.34
2022-08-20T13:00:09.561Z,61.36
2022-08-20T13:02:38.572Z,60.17
2022-08-20T13:05:06.961Z,61.69
2022-08-20T13:07:33.496Z,61.43
2022-08-20T13:10:00.639Z,61.01
2022-08-20T13:12:27.930Z,60.13
2022-08-20T13:14:54.350Z,59.58
2022-08-20T13:17:24.334Z,59.53
2022-08-20T13:20:08.856Z,58.37
2022-08-20T13:22:35.362Z,58.55
2022-08-20T13:25:01.720Z,58.35
2022-08-20T13:27:28.101Z,57.36
2022-08-20T13:29:58.922Z,58.37
2022-08-20T13:32:26.081Z,61.00
2022-08-20T13:34:52.867Z,65.81
2022-08-20T13:37:26.100Z,66.76
2022-08-20T13:39:53.321Z,68.24
2022-08-20T13:42:20.194Z,68.76
2022-08-20T13:44:47.020Z,70.39
2022-08-20T13:47:34.888Z,71.11
2022-08-20T13:50:17.431Z,71.69
2022-08-20T13:52:44.734Z,71.83
2022-08-20T13:55:16.700Z,71.25
2022-08-20T13:57:44.506Z,69.32
2022-08-20T14:00:15.353Z,68.40
2022-08-20T14:02:43.046Z,70.21
2022-08-20T14:05:10.509Z,68.75
2022-08-20T14:07:38.657Z,68.25
2022-08-20T14:10:08.879Z,69.22
2022-08-20T14:12:35.889Z,67.75
2022-08-20T14:15:02.318Z,66.22
2022-08-20T14:17:31.986Z,65.56
2022-08-20T14:20:05.141Z,66.00
2022-08-20T14:22:33.095Z,66.56
2022-08-20T14:25:03.385Z,66.97
2022-08-20T14:27:31.683Z,66.68
2022-08-20T14:29:58.346Z,67.02
2022-08-20T14:32:24.791Z,67.50
2022-08-20T14:34:51.399Z,67.21
2022-08-20T14:37:22.157Z,66.11
2022-08-20T14:39:52.951Z,65.39
2022-08-20T14:42:22.132Z,65.66
2022-08-20T14:44:49.131Z,65.11
2022-08-20T14:47:24.179Z,66.02
2022-08-20T14:49:52.474Z,65.36
2022-08-20T14:52:20.624Z,64.94
2022-08-20T14:54:47.843Z,65.17
2022-08-20T14:57:16.467Z,64.79
2022-08-20T14:59:43.023Z,64.87
2022-08-20T15:02:12.387Z,65.61
2022-08-20T15:04:39.878Z,66.29
2022-08-20T15:07:15.826Z,66.74
2022-08-20T15:09:42.867Z,66.45
2022-08-20T15:12:09.260Z,66.69
2022-08-20T15:14:35.586Z,65.84
2022-08-20T15:17:05.935Z,64.92
2022-08-20T15:19:32.375Z,64.30
2022-08-20T15:21:58.711Z,64.14
2022-08-20T15:24:25.072Z,63.06
2022-08-20T15:26:51.451Z,61.61
2022-08-20T15:29:23.369Z,61.38
2022-08-20T15:31:50.629Z,60.14
2022-08-20T15:34:17.804Z,58.97
2022-08-20T15:36:44.577Z,57.62
2022-08-20T15:39:10.922Z,56.41
2022-08-20T15:41:37.266Z,56.22
2022-08-20T15:44:03.835Z,54.11
2022-08-20T15:46:31.629Z,52.48
2022-08-20T15:49:02.656Z,52.33
2022-08-20T15:51:34.344Z,50.58
2022-08-20T15:54:24.956Z,50.41
2022-08-20T15:57:14.323Z,50.86
2022-08-20T15:59:50.150Z,52.03
2022-08-20T16:02:40.062Z,52.82
2022-08-20T16:05:46.924Z,53.50
2022-08-20T16:08:44.524Z,54.34
2022-08-20T16:11:19.951Z,54.71
2022-08-20T16:14:03.491Z,55.14
2022-08-20T16:16:35.480Z,55.88
2022-08-20T16:19:02.331Z,55.29
2022-08-20T16:21:40.459Z,55.47
2022-08-20T16:24:10.741Z,56.24
2022-08-20T16:27:01.339Z,56.31
2022-08-20T16:29:56.448Z,56.90
2022-08-20T16:32:44.535Z,57.04
2022-08-20T16:35:30.148Z,57.88
2022-08-20T16:38:23.415Z,58.10
2022-08-20T16:40:56.940Z,58.21
2022-08-20T16:43:31.730Z,57.88
2022-08-20T16:46:19.954Z,58.08
2022-08-20T16:48:52.964Z,57.52
2022-08-20T16:51:32.747Z,57.00
2022-08-20T16:53:59.127Z,56.93
2022-08-20T16:56:35.892Z,56.88
2022-08-20T16:59:08.656Z,57.05
2022-08-20T17:01:35.664Z,57.13
2022-08-20T17:04:02.137Z,56.91
2022-08-20T17:06:35.574Z,57.28
2022-08-20T17:09:07.425Z,57.69
2022-08-20T17:11:36.735Z,57.71
2022-08-20T17:14:15.580Z,58.03
2022-08-20T17:16:47.321Z,58.68
2022-08-20T17:19:28.525Z,58.53
2022-08-20T17:21:56.600Z,59.18
2022-08-20T17:24:28.039Z,58.80
2022-08-20T17:27:03.780Z,59.16
2022-08-20T17:29:49.217Z,60.07
2022-08-20T17:32:21.881Z,61.12
2022-08-20T17:34:52.437Z,61.39
2022-08-20T17:37:24.033Z,61.53
2022-08-20T17:39:56.229Z,62.40
2022-08-20T17:42:26.981Z,63.22
2022-08-20T17:44:58.225Z,63.13
2022-08-20T17:47:36.073Z,63.37
2022-08-20T17:50:13.510Z,64.09
2022-08-20T17:52:48.583Z,63.87
2022-08-20T17:55:14.986Z,64.82
2022-08-20T17:57:47.765Z,65.03
2022-08-20T18:00:23.583Z,65.53
2022-08-20T18:02:59.553Z,65.20
2022-08-20T18:05:29.431Z,65.23
2022-08-20T18:08:15.581Z,66.82
2022-08-20T18:11:08.082Z,66.86
2022-08-20T18:13:53.109Z,66.98
2022-08-20T18:16:42.911Z,66.65
2022-08-20T18:19:37.417Z,66.53
2022-08-20T18:22:11.896Z,66.14
2022-08-20T18:25:03.185Z,65.44
2022-08-20T18:27:38.363Z,64.89
2022-08-20T18:30:15.610Z,64.16
2022-08-20T18:32:42.015Z,63.44
2022-08-20T18:35:31.740Z,63.41
2022-08-20T18:38:12.721Z,64.19
2022-08-20T18:40:39.841Z,64.24
2022-08-20T18:43:25.416Z,64.09
2022-08-20T18:45:51.843Z,63.37
2022-08-20T18:48:23.829Z,63.58
2022-08-20T18:50:56.510Z,63.22
2022-08-20T18:53:34.387Z,63.58
2022-08-20T18:56:11.809Z,63.22
2022-08-20T18:59:19.929Z,63.75
2022-08-20T19:01:48.071Z,64.13
2022-08-20T19:04:23.513Z,64.09
2022-08-20T19:06:57.685Z,65.16
2022-08-20T19:10:12.826Z,66.08
2022-08-20T19:13:11.254Z,66.69
2022-08-20T19:15:45.767Z,65.97
2022-08-20T19:18:20.444Z,66.22
2022-08-20T19:20:55.357Z,66.79
2022-08-20T19:23:24.031Z,66.88
2022-08-20T19:26:03.723Z,66.85
2022-08-20T19:28:34.422Z,66.45
2022-08-20T19:31:18.316Z,66.63
2022-08-20T19:33:46.806Z,66.90
2022-08-20T19:36:21.005Z,67.70
2022-08-20T19:38:53.240Z,67.67
2022-08-20T19:41:41.805Z,68.13
2022-08-20T19:44:08.569Z,67.66
2022-08-20T19:46:38.625Z,68.48
2022-08-20T19:49:23.257Z,68.18
2022-08-20T19:52:05.975Z,68.67
2022-08-20T19:54:54.258Z,68.77
2022-08-20T19:57:22.187Z,68.50
2022-08-20T19:59:55.219Z,68.69
2022-08-20T20:02:23.946Z,68.42
2022-08-20T20:04:54.972Z,69.45
2022-08-20T20:07:26.800Z,69.37
2022-08-20T20:09:56.983Z,68.62
2022-08-20T20:12:23.812Z,69.01
2022-08-20T20:14:52.992Z,69.09
2022-08-20T20:17:27.227Z,69.09
2022-08-20T20:20:14.237Z,69.49
2022-08-20T20:22:56.951Z,70.16
2022-08-20T20:25:38.409Z,70.38
2022-08-20T20:28:27.302Z,70.46
2022-08-20T20:30:54.198Z,70.28
2022-08-20T20:33:31.245Z,70.95
2022-08-20T20:36:29.869Z,70.22
2022-08-20T20:38:59.205Z,70.89
2022-08-20T20:41:28.406Z,71.02
2022-08-20T20:44:19.133Z,70.67
2022-08-20T20:46:48.040Z,70.67
2022-08-20T20:49:30.366Z,71.26
2022-08-20T20:52:14.893Z,70.64
2022-08-20T20:54:44.521Z,70.72
2022-08-20T20:57:32.675Z,71.27
2022-08-20T21:00:09.999Z,71.40
2022-08-20T21:02:36.331Z,71.66
2022-08-20T21:05:02.888Z,71.24
2022-08-20T21:07:29.255Z,71.57
2022-08-20T21:09:57.070Z,71.61
2022-08-20T21:12:24.106Z,70.99
2022-08-20T21:14:51.099Z,70.59
2022-08-20T21:17:21.839Z,71.21
2022-08-20T21:19:50.163Z,70.64
2022-08-20T21:22:17.882Z,71.01
2022-08-20T21:24:45.542Z,70.54
2022-08-20T21:27:12.778Z,70.51
2022-08-20T21:29:39.559Z,70.43
2022-08-20T21:32:06.151Z,70.12
2022-08-20T21:34:32.481Z,70.59
2022-08-20T21:36:58.961Z,69.89
2022-08-20T21:39:26.845Z,69.88
2022-08-20T21:41:56.003Z,70.22
2022-08-20T21:44:27.004Z,69.99
2022-08-20T21:46:56.258Z,70.21
2022-08-20T21:49:24.049Z,70.50
2022-08-20T21:51:50.507Z,70.53
2022-08-20T21:54:17.987Z,70.74
2022-08-20T21:56:49.135Z,71.35
2022-08-20T21:59:16.950Z,71.19
2022-08-20T22:01:43.397Z,71.91
2022-08-20T22:04:10.114Z,70.28
2022-08-20T22:06:36.538Z,71.51
2022-08-20T22:09:03.262Z,71.60
2022-08-20T22:11:29.953Z,71.10
2022-08-20T22:13:56.498Z,71.26
2022-08-20T22:16:23.538Z,71.32
2022-08-20T22:18:51.006Z,71.47
2022-08-20T22:21:21.182Z,71.38
2022-08-20T22:23:48.446Z,71.43
2022-08-20T22:26:16.175Z,71.06
2022-08-20T22:28:42.685Z,71.41
2022-08-20T22:31:09.585Z,71.52
2022-08-20T22:33:37.669Z,71.62
2022-08-20T22:36:05.646Z,71.77
2022-08-20T22:38:32.467Z,71.99
2022-08-20T22:40:58.913Z,73.18
2022-08-20T22:43:25.283Z,73.57
2022-08-20T22:45:55.469Z,72.98
2022-08-20T22:48:21.875Z,72.46
2022-08-20T22:50:49.404Z,72.77
2022-08-20T22:53:17.983Z,73.14
2022-08-20T22:55:44.533Z,72.91
2022-08-20T22:58:12.548Z,72.96
2022-08-20T23:00:39.574Z,72.42
2022-08-20T23:03:07.003Z,72.18
2022-08-20T23:05:35.948Z,71.92
2022-08-20T23:08:04.899Z,72.81
2022-08-20T23:10:33.086Z,72.49
2022-08-20T23:12:59.684Z,72.27
2022-08-20T23:15:27.447Z,72.12
2022-08-20T23:18:08.082Z,72.51
2022-08-20T23:20:34.691Z,72.39
2022-08-20T23:23:01.027Z,72.20
2022-08-20T23:25:28.141Z,71.87
2022-08-20T23:27:56.385Z,71.76
2022-08-20T23:30:29.970Z,71.71
2022-08-20T23:32:56.566Z,71.67
2022-08-20T23:35:23.141Z,71.74
2022-08-20T23:37:58.032Z,71.54
2022-08-20T23:40:26.866Z,71.66
2022-08-20T23:42:55.413Z,72.06
2022-08-20T23:45:21.882Z,72.42
2022-08-20T23:47:48.458Z,72.83
2022-08-20T23:50:17.713Z,72.10
2022-08-20T23:52:44.225Z,72.18
2022-08-20T23:55:11.209Z,71.96
2022-08-20T23:57:39.591Z,72.27
